Terminal Aerodrome Forecast
Issued by NWS Wilmington, OH

Current Version | Previous Version | Graphics & Text | Print | Product List | Glossary On
Versions: 1 2 3 4 5 6 7 8 9 10 11 12 13 14 15 16 17 18
000
FTUS41 KILN 232200 AAA
TAFDAY
TAF AMD
KDAY 232202Z 2322/2418 34009KT P6SM FEW025 BKN040 OVC100
      TEMPO 2322/2323 -SHRA BKN025 OVC070
     FM240100 01008KT P6SM SCT080
     FM241400 02010G16KT P6SM BKN035=

USA.gov is the U.S. government's official web portal to all federal, state and local government web resources and services.